Terminal Aerodrome Forecast
Issued by NWS

Home | Current Version | Previous Version | Text Only | Print | Product List | Glossary On
Versions: 1 2 3 4 5 6 7 8 9 10 11 12 13 14 15
000
FTUS45 KABQ 171700
TAFSAF
TAF
KSAF 171739Z 1718/1818 VRB06KT P6SM VCSH SCT030 BKN090
      TEMPO 1719/1722 6SM -RA BR SCT020 BKN040
     FM172200 14010KT P6SM VCSH SCT030 BKN080
      TEMPO 1803/1807 BKN030 OVC070
     FM181000 03007KT P6SM VCSH SCT030 BKN070
      TEMPO 1810/1814 BKN030
     FM181700 13010KT P6SM VCSH SCT015 BKN035=

USA.gov is the U.S. government's official web portal to all federal, state and local government web resources and services.